Time;durP1;ratioP1;P1;durP2;ratioP2;P2;SDS_P1;SDS_P2;PMS_P1;PMS_P2;Temp;Humidity;BMP_temperature;BMP_pressure;BME280_temperature;BME280_humidity;BME280_pressure;Samples;Min_cycle;Max_cycle;Signal;HPM_P1;HPM_P2
2021/07/12 00:02:16;;;;;;;141.52;129.73;;;;;;;17.06;100.00;100949.78;5049508;28;20516;-77
2021/07/12 00:04:43;;;;;;;184.85;171.57;;;;;;;17.18;100.00;100953.22;5061838;28;20049;-79
2021/07/12 00:07:10;;;;;;;142.27;131.07;;;;;;;17.20;100.00;100946.81;5052270;28;20048;-78
2021/07/12 00:09:36;;;;;;;141.13;129.75;;;;;;;17.26;100.00;100954.69;5058189;28;20468;-78
2021/07/12 00:12:04;;;;;;;154.27;142.23;;;;;;;16.92;100.00;100954.69;5057411;28;20094;-81
2021/07/12 00:14:31;;;;;;;131.07;120.45;;;;;;;16.94;100.00;100955.25;5052206;28;20114;-80
2021/07/12 00:16:59;;;;;;;165.77;152.60;;;;;;;16.96;100.00;100956.88;5062218;28;20044;-79
2021/07/12 00:19:26;;;;;;;137.75;126.75;;;;;;;17.10;100.00;100959.00;5065572;28;20037;-79
2021/07/12 00:21:52;;;;;;;139.90;128.80;;;;;;;17.03;100.00;100950.28;5044690;28;20111;-81
2021/07/12 00:24:20;;;;;;;138.32;127.65;;;;;;;17.10;100.00;100950.94;5044326;28;20045;-80
2021/07/12 00:26:47;;;;;;;111.72;102.13;;;;;;;17.09;100.00;100949.31;5049177;28;20142;-79
2021/07/12 00:29:15;;;;;;;129.50;118.72;;;;;;;16.95;100.00;100950.69;5042332;28;20045;-80
2021/07/12 00:31:41;;;;;;;146.10;134.70;;;;;;;16.83;100.00;100942.72;5065817;28;20103;-79
2021/07/12 00:34:10;;;;;;;119.90;109.80;;;;;;;16.81;100.00;100952.88;5054189;28;20083;-78
2021/07/12 00:36:37;;;;;;;109.35;100.00;;;;;;;16.99;100.00;100949.16;5041396;28;20050;-79
2021/07/12 00:39:10;;;;;;;123.25;113.40;;;;;;;16.99;100.00;100951.03;5054258;28;20056;-81
2021/07/12 00:41:36;;;;;;;;;;;;;;;16.85;100.00;100954.03;5049548;28;20471;-78
2021/07/12 00:44:04;;;;;;;102.65;94.05;;;;;;;16.82;100.00;100949.13;5054632;28;20346;-78
2021/07/12 00:46:31;;;;;;;144.75;133.05;;;;;;;16.53;100.00;100940.25;5053511;28;20466;-78
2021/07/12 00:48:58;;;;;;;115.50;105.47;;;;;;;16.58;100.00;100945.72;5041631;28;20462;-78
2021/07/12 00:51:26;;;;;;;115.90;105.90;;;;;;;16.57;100.00;100952.13;5047920;28;20048;-80
2021/07/12 00:53:53;;;;;;;118.72;108.85;;;;;;;16.50;100.00;100956.84;5056615;28;20056;-80
2021/07/12 00:56:21;;;;;;;134.52;123.82;;;;;;;16.47;100.00;100943.91;5054008;28;20050;-78
2021/07/12 00:58:48;;;;;;;128.50;118.32;;;;;;;16.60;100.00;100948.97;5054295;28;20115;-80
2021/07/12 01:01:21;;;;;;;132.82;122.28;;;;;;;16.56;100.00;100945.16;5045970;28;20064;-80
2021/07/12 01:03:47;;;;;;;118.40;108.03;;;;;;;16.63;100.00;100945.00;5059571;28;20049;-79
2021/07/12 01:06:14;;;;;;;125.80;115.53;;;;;;;16.63;100.00;100955.72;5055891;28;20053;-78
2021/07/12 01:08:43;;;;;;;115.43;105.85;;;;;;;16.66;100.00;100945.31;5060155;28;20076;-80
2021/07/12 01:11:14;;;;;;;121.93;112.13;;;;;;;16.43;100.00;100950.78;5052483;28;20045;-80
2021/07/12 01:13:49;;;;;;;127.38;116.88;;;;;;;16.44;100.00;100952.44;5046652;28;20111;-79
2021/07/12 01:16:28;;;;;;;136.70;125.93;;;;;;;16.47;100.00;100965.34;5052742;28;20470;-78
2021/07/12 01:19:00;;;;;;;132.02;121.70;;;;;;;16.36;100.00;100955.47;5051139;28;20512;-81
2021/07/12 01:22:03;;;;;;;106.78;97.95;;;;;;;16.52;100.00;100957.41;5048140;28;20076;-79
2021/07/12 01:24:59;;;;;;;;;;;;;;;16.47;100.00;100955.44;5059424;28;20051;-79
2021/07/12 01:27:54;;;;;;;111.15;101.88;;;;;;;16.39;100.00;100963.03;4980091;28;19997;-81
2021/07/12 01:30:29;;;;;;;135.85;125.32;;;;;;;16.00;100.00;100966.28;5058037;28;20128;-78
2021/07/12 01:33:11;;;;;;;137.55;126.53;;;;;;;16.06;100.00;100969.88;5052863;28;20049;-79
2021/07/12 01:35:49;;;;;;;132.40;121.60;;;;;;;15.94;100.00;100963.72;5055381;28;20102;-79
2021/07/12 01:38:27;;;;;;;178.52;164.77;;;;;;;15.55;100.00;100960.69;5048812;28;20057;-78
2021/07/12 01:41:01;;;;;;;122.55;112.38;;;;;;;15.88;100.00;100954.75;5051948;28;20045;-80
2021/07/12 01:43:34;;;;;;;114.50;104.95;;;;;;;16.07;100.00;100951.94;5061949;28;20362;-80
2021/07/12 01:46:08;;;;;;;141.35;130.60;;;;;;;16.26;100.00;100964.13;5056574;28;20063;-78
2021/07/12 01:48:45;;;;;;;109.10;99.90;;;;;;;16.08;100.00;100954.38;5053590;28;20115;-79
2021/07/12 01:51:14;;;;;;;136.70;125.80;;;;;;;15.85;100.00;100947.19;5055848;28;20045;-78
2021/07/12 01:53:47;;;;;;;116.75;106.90;;;;;;;16.09;100.00;100950.66;5049186;28;20057;-81
2021/07/12 01:56:21;;;;;;;117.20;106.97;;;;;;;16.02;100.00;100953.47;5049266;28;20107;-79
2021/07/12 01:58:55;;;;;;;121.15;111.18;;;;;;;16.04;100.00;100953.25;5046163;28;20448;-77
2021/07/12 02:01:24;;;;;;;116.70;107.20;;;;;;;16.24;100.00;100948.28;5143945;22;20069;-78
2021/07/12 02:03:56;;;;;;;134.48;123.47;;;;;;;16.23;100.00;100940.50;5027332;28;20046;-79
2021/07/12 02:06:24;;;;;;;98.05;89.25;;;;;;;16.17;100.00;100954.84;5031206;28;20045;-78
2021/07/12 02:08:52;;;;;;;85.85;78.50;;;;;;;16.31;100.00;100944.66;5035275;28;20432;-78
2021/07/12 02:11:20;;;;;;;134.00;123.30;;;;;;;16.23;100.00;100952.03;5033184;28;20041;-79
2021/07/12 02:13:50;;;;;;;96.55;87.85;;;;;;;16.05;100.00;100951.38;5026747;28;20053;-78
2021/07/12 02:16:19;;;;;;;135.93;125.05;;;;;;;16.16;100.00;100946.00;5029066;28;20057;-79
2021/07/12 02:18:48;;;;;;;163.50;150.75;;;;;;;15.46;100.00;100952.22;5024000;28;20057;-78
2021/07/12 02:21:16;;;;;;;121.65;111.28;;;;;;;15.75;100.00;100947.78;5035547;28;20050;-77
2021/07/12 02:23:44;;;;;;;109.90;100.30;;;;;;;15.83;100.00;100957.34;5025546;28;20642;-78
2021/07/12 02:26:13;;;;;;;103.40;94.05;;;;;;;15.90;100.00;100962.56;5029221;28;20085;-79
2021/07/12 02:28:44;;;;;;;105.38;96.45;;;;;;;15.76;100.00;100953.97;5022328;28;20111;-77
2021/07/12 02:31:13;;;;;;;203.73;188.75;;;;;;;15.36;100.00;100957.31;5031431;28;20046;-78
2021/07/12 02:33:40;;;;;;;161.20;148.35;;;;;;;15.86;100.00;100948.84;5023584;28;20057;-79
2021/07/12 02:36:08;;;;;;;138.25;127.20;;;;;;;16.01;100.00;100949.16;5019512;28;20053;-79
2021/07/12 02:38:50;;;;;;;132.40;121.60;;;;;;;15.73;100.00;100949.06;5026292;28;20119;-83
2021/07/12 02:41:17;;;;;;;150.73;138.57;;;;;;;15.98;100.00;100951.50;5027594;28;20115;-77
2021/07/12 02:43:46;;;;;;;134.68;123.80;;;;;;;15.81;100.00;100959.44;5024564;28;20474;-79
2021/07/12 02:46:14;;;;;;;109.60;100.63;;;;;;;15.97;100.00;100952.53;5026688;28;20050;-78
2021/07/12 02:48:42;;;;;;;104.25;95.85;;;;;;;16.15;100.00;100954.25;5023533;28;20061;-77
2021/07/12 02:51:12;;;;;;;94.63;86.40;;;;;;;16.03;100.00;100951.59;5033408;28;20464;-78
2021/07/12 02:53:46;;;;;;;132.05;121.47;;;;;;;16.13;100.00;100948.34;5030379;28;20084;-79
2021/07/12 02:56:14;;;;;;;117.90;108.97;;;;;;;16.17;100.00;100946.81;5030312;28;20137;-79
2021/07/12 02:58:43;;;;;;;132.60;122.10;;;;;;;15.71;100.00;100946.66;5023697;28;20046;-79
2021/07/12 03:01:10;;;;;;;109.80;100.55;;;;;;;15.91;100.00;100950.81;5026877;28;20049;-80
2021/07/12 03:03:37;;;;;;;141.15;129.63;;;;;;;15.91;100.00;100948.13;5034321;28;20050;-79
2021/07/12 03:06:11;;;;;;;139.02;127.30;;;;;;;16.09;100.00;100947.16;5030969;28;20478;-78
2021/07/12 03:08:54;;;;;;;152.20;138.45;;;;;;;15.62;100.00;100942.66;5034358;28;20081;-79
2021/07/12 03:11:26;;;;;;;166.32;150.65;;;;;;;15.68;100.00;100949.78;5031853;28;20474;-78
2021/07/12 03:14:00;;;;;;;141.52;128.75;;;;;;;15.84;100.00;100952.81;5030415;28;20049;-77
2021/07/12 03:16:28;;;;;;;130.98;118.18;;;;;;;16.13;100.00;100945.66;5026114;28;20069;-78
2021/07/12 03:18:59;;;;;;;134.23;121.05;;;;;;;16.19;100.00;100950.88;5034511;28;20054;-78
2021/07/12 03:21:26;;;;;;;123.20;111.03;;;;;;;16.11;100.00;100948.56;5028291;28;20050;-80
2021/07/12 03:23:55;;;;;;;145.82;131.75;;;;;;;16.18;100.00;100953.78;5028512;28;20123;-80
2021/07/12 03:26:25;;;;;;;132.15;118.60;;;;;;;16.14;100.00;100950.75;5029023;28;20054;-80
2021/07/12 03:28:55;;;;;;;124.03;111.45;;;;;;;16.29;100.00;100942.22;5022100;28;20054;-79
2021/07/12 03:31:26;;;;;;;125.72;112.55;;;;;;;16.18;100.00;100949.22;5034130;28;20084;-76
2021/07/12 03:33:56;;;;;;;135.88;121.97;;;;;;;16.34;100.00;100952.22;5034592;28;20046;-79
2021/07/12 03:36:24;;;;;;;125.72;112.93;;;;;;;16.37;100.00;100955.25;5034487;28;20475;-77
2021/07/12 03:38:52;;;;;;;135.15;121.57;;;;;;;16.56;100.00;100963.91;5031367;28;20531;-78
2021/07/12 03:41:18;;;;;;;127.85;115.03;;;;;;;16.59;100.00;100960.75;5031254;28;20046;-77
2021/07/12 03:43:47;;;;;;;122.60;109.60;;;;;;;16.76;100.00;100962.69;5034270;28;20053;-79
2021/07/12 03:46:14;;;;;;;131.25;117.95;;;;;;;16.90;100.00;100967.50;5029761;28;20053;-78
2021/07/12 03:48:43;;;;;;;125.20;112.65;;;;;;;16.90;100.00;100974.75;5033214;28;20053;-78
2021/07/12 03:51:15;;;;;;;127.20;114.43;;;;;;;16.98;100.00;100969.00;5033289;28;20049;-77
2021/07/12 03:53:43;;;;;;;123.05;110.47;;;;;;;16.91;100.00;100969.16;5032215;28;20488;-77
2021/07/12 03:56:10;;;;;;;119.50;107.00;;;;;;;17.18;100.00;100969.31;5029577;28;20501;-78
2021/07/12 03:58:36;;;;;;;139.32;126.03;;;;;;;17.05;100.00;100969.66;5032536;28;20499;-78
2021/07/12 04:01:05;;;;;;;111.97;100.45;;;;;;;17.12;100.00;100974.84;5023326;28;20481;-77
2021/07/12 04:03:33;;;;;;;121.75;109.40;;;;;;;17.36;100.00;100978.19;5026138;28;20096;-78
2021/07/12 04:06:00;;;;;;;117.85;105.85;;;;;;;17.45;100.00;100968.66;5026477;28;20057;-80
2021/07/12 04:08:27;;;;;;;121.93;109.40;;;;;;;17.49;100.00;100968.97;5029156;28;20041;-76
2021/07/12 04:10:54;;;;;;;120.82;108.53;;;;;;;17.71;100.00;100969.06;5026985;28;20064;-79
2021/07/12 04:13:20;;;;;;;117.28;105.28;;;;;;;17.67;100.00;100970.59;5030209;28;20563;-77
2021/07/12 04:15:47;;;;;;;118.05;105.45;;;;;;;17.76;100.00;100964.56;5027533;28;20480;-78
2021/07/12 04:18:15;;;;;;;108.05;96.32;;;;;;;17.76;100.00;100967.25;5029495;28;20115;-78
2021/07/12 04:20:43;;;;;;;108.45;96.65;;;;;;;17.70;100.00;100967.41;5027060;28;20550;-79
2021/07/12 04:23:11;;;;;;;119.18;106.88;;;;;;;17.83;100.00;100961.72;5030605;28;20041;-79
2021/07/12 04:25:38;;;;;;;109.72;98.43;;;;;;;17.73;100.00;100958.84;5031512;28;20590;-77
2021/07/12 04:28:05;;;;;;;107.85;99.38;;;;;;;17.73;100.00;100957.00;5021254;28;20486;-78
2021/07/12 04:30:32;;;;;;;111.07;102.50;;;;;;;17.91;100.00;100961.28;5024122;28;20068;-77
2021/07/12 04:32:59;;;;;;;102.55;94.72;;;;;;;18.05;100.00;100959.06;5031034;28;20054;-79
2021/07/12 04:35:27;;;;;;;105.97;98.00;;;;;;;17.97;100.00;100956.78;5035393;28;20060;-78
2021/07/12 04:37:54;;;;;;;104.72;96.55;;;;;;;18.10;100.00;100952.94;5030140;28;20501;-79
2021/07/12 04:40:22;;;;;;;102.80;95.20;;;;;;;18.27;100.00;100956.34;5032378;28;20106;-79
2021/07/12 04:42:48;;;;;;;99.38;91.55;;;;;;;18.33;100.00;100960.72;5030972;28;20091;-78
2021/07/12 04:45:15;;;;;;;132.77;122.55;;;;;;;22.48;100.00;100947.50;5037963;28;20456;-84
2021/07/12 04:47:42;;;;;;;72.53;67.53;;;;;;;22.16;100.00;100942.47;5030098;28;20049;-77
2021/07/12 04:50:11;;;;;;;81.82;75.72;;;;;;;19.12;100.00;100951.31;5032440;28;20767;-77
2021/07/12 04:52:39;;;;;;;101.35;94.20;;;;;;;19.12;100.00;100956.69;5029666;28;20103;-77
2021/07/12 04:55:07;;;;;;;96.57;89.15;;;;;;;19.13;100.00;100963.72;5017643;28;20100;-78
2021/07/12 04:57:35;;;;;;;101.97;94.65;;;;;;;19.08;100.00;100953.69;5021978;28;20045;-78
2021/07/12 05:00:02;;;;;;;103.65;96.00;;;;;;;19.16;100.00;100964.00;5029252;28;20485;-78
2021/07/12 05:02:29;;;;;;;93.78;86.75;;;;;;;19.27;100.00;100967.56;5023749;28;20058;-77
2021/07/12 05:04:56;;;;;;;88.18;81.63;;;;;;;19.29;100.00;100968.13;5026984;28;20045;-77
2021/07/12 05:07:22;;;;;;;87.50;80.63;;;;;;;19.29;100.00;100960.06;5026990;28;20103;-78
2021/07/12 05:09:51;;;;;;;96.38;88.78;;;;;;;19.74;100.00;100971.44;5026320;28;20064;-77
2021/07/12 05:12:19;;;;;;;90.90;83.93;;;;;;;19.92;100.00;100967.50;5022217;28;20510;-76
2021/07/12 05:14:46;;;;;;;84.57;77.97;;;;;;;20.04;100.00;100958.13;5026593;28;20551;-77
2021/07/12 05:17:14;;;;;;;92.78;84.97;;;;;;;20.00;100.00;100959.72;5019601;28;20123;-77
2021/07/12 05:19:41;;;;;;;94.25;87.18;;;;;;;20.23;100.00;100965.75;5032726;28;20049;-77
2021/07/12 05:22:08;;;;;;;84.45;77.97;;;;;;;20.34;100.00;100954.72;5028337;28;20042;-77
2021/07/12 05:24:35;;;;;;;79.70;73.47;;;;;;;20.30;100.00;100960.91;5021602;28;20104;-77
2021/07/12 05:27:04;;;;;;;92.85;85.80;;;;;;;20.29;100.00;100962.78;5023358;28;20494;-79
2021/07/12 05:29:30;;;;;;;82.70;76.20;;;;;;;20.42;100.00;100961.47;5022818;28;20053;-79
2021/07/12 05:31:57;;;;;;;85.05;78.55;;;;;;;20.62;100.00;100959.94;5026575;28;20049;-79
2021/07/12 05:34:24;;;;;;;89.10;82.30;;;;;;;20.83;100.00;100961.59;5034159;28;20057;-78
2021/07/12 05:36:50;;;;;;;85.43;79.03;;;;;;;20.98;100.00;100958.09;5031965;28;20049;-79
2021/07/12 05:39:17;;;;;;;86.55;79.75;;;;;;;21.10;100.00;100955.94;5031714;28;20115;-80
2021/07/12 05:41:45;;;;;;;95.03;87.78;;;;;;;21.25;100.00;100960.53;5022581;28;20108;-78
2021/07/12 05:44:13;;;;;;;96.35;88.90;;;;;;;21.41;100.00;100954.06;5033731;28;20144;-78
2021/07/12 05:46:40;;;;;;;101.68;93.53;;;;;;;21.61;100.00;100950.50;5027726;28;20058;-78
2021/07/12 05:49:07;;;;;;;85.78;79.00;;;;;;;21.71;100.00;100960.47;5029970;28;20045;-79
2021/07/12 05:51:34;;;;;;;97.97;90.22;;;;;;;21.83;100.00;100961.00;5017715;28;20041;-79
2021/07/12 05:54:00;;;;;;;93.60;86.18;;;;;;;22.17;100.00;100957.66;5024720;28;20081;-79
2021/07/12 05:56:27;;;;;;;83.03;76.10;;;;;;;22.22;100.00;100951.41;5027452;28;20045;-78
2021/07/12 05:58:54;;;;;;;105.68;97.43;;;;;;;22.39;100.00;100947.28;5024327;28;20374;-78
2021/07/12 06:01:22;;;;;;;100.68;92.88;;;;;;;22.52;100.00;100953.16;5026844;28;20119;-78
2021/07/12 06:03:49;;;;;;;96.50;89.00;;;;;;;22.53;100.00;100954.75;5026452;28;20116;-77
2021/07/12 06:06:16;;;;;;;97.15;89.63;;;;;;;22.77;100.00;100957.56;5027666;28;20470;-79
2021/07/12 06:08:42;;;;;;;93.85;87.00;;;;;;;22.77;100.00;100957.56;5024417;28;20073;-79
2021/07/12 06:11:09;;;;;;;90.82;83.68;;;;;;;22.81;100.00;100945.91;5027746;28;20297;-78
2021/07/12 06:13:37;;;;;;;104.38;95.97;;;;;;;23.06;100.00;100961.19;5030013;28;20518;-77
2021/07/12 06:16:04;;;;;;;78.05;71.78;;;;;;;24.52;100.00;100950.09;5029110;28;20079;-79
2021/07/12 06:18:32;;;;;;;74.43;68.75;;;;;;;24.90;100.00;100950.03;5029082;28;20049;-78
2021/07/12 06:20:59;;;;;;;61.88;56.60;;;;;;;25.20;100.00;100947.97;5015088;28;20545;-78
2021/07/12 06:23:26;;;;;;;56.83;52.03;;;;;;;25.40;100.00;100955.75;5028700;28;20107;-79
2021/07/12 06:25:53;;;;;;;63.70;58.55;;;;;;;24.87;100.00;100946.03;5025066;28;20046;-78
2021/07/12 06:28:19;;;;;;;60.38;55.13;;;;;;;24.83;100.00;100945.00;5020787;28;20058;-79
2021/07/12 06:30:46;;;;;;;55.70;51.50;;;;;;;25.10;100.00;100943.47;5026882;28;20042;-79
2021/07/12 06:33:13;;;;;;;53.47;49.17;;;;;;;25.32;100.00;100938.22;5019206;28;20049;-79
2021/07/12 06:35:41;;;;;;;47.47;42.97;;;;;;;25.54;100.00;100947.63;5031944;28;20502;-79
2021/07/12 06:38:08;;;;;;;49.83;45.88;;;;;;;25.56;100.00;100942.69;5025587;28;20053;-79
2021/07/12 06:40:35;;;;;;;50.08;46.00;;;;;;;25.79;100.00;100947.13;5026633;28;20049;-80
2021/07/12 06:43:02;;;;;;;58.00;53.00;;;;;;;25.34;100.00;100943.38;5030034;28;20119;-79
2021/07/12 06:45:34;;;;;;;48.65;44.53;;;;;;;25.89;100.00;100943.41;5025313;28;20116;-83
2021/07/12 06:48:01;;;;;;;51.55;47.05;;;;;;;25.56;100.00;100943.47;5035332;28;20144;-76
2021/07/12 06:50:28;;;;;;;63.53;57.95;;;;;;;25.17;100.00;100943.91;5036703;28;20053;-76
2021/07/12 06:52:56;;;;;;;56.72;52.05;;;;;;;25.44;100.00;100948.59;5031643;28;20532;-79
2021/07/12 06:55:23;;;;;;;56.47;51.53;;;;;;;25.21;100.00;100939.53;5031661;28;20045;-76
2021/07/12 06:57:49;;;;;;;51.85;47.20;;;;;;;25.26;100.00;100942.13;5028145;28;20265;-78
2021/07/12 07:00:17;;;;;;;52.13;47.75;;;;;;;25.57;100.00;100944.31;5031978;28;20552;-77
2021/07/12 07:02:44;;;;;;;46.55;42.05;;;;;;;25.63;100.00;100939.56;5038600;28;20061;-77
2021/07/12 07:05:11;;;;;;;46.15;42.10;;;;;;;25.46;100.00;100938.25;5030331;28;20080;-77
2021/07/12 07:07:38;;;;;;;42.60;38.45;;;;;;;25.75;100.00;100927.09;5029828;28;20045;-76
2021/07/12 07:10:08;;;;;;;48.92;44.85;;;;;;;25.96;100.00;100932.94;5034101;28;20045;-78
2021/07/12 07:12:35;;;;;;;50.40;46.30;;;;;;;26.20;100.00;100931.88;5042752;28;20041;-78
2021/07/12 07:15:02;;;;;;;41.58;38.20;;;;;;;26.24;100.00;100925.53;5031739;28;20394;-76
2021/07/12 07:17:29;;;;;;;40.55;37.35;;;;;;;26.28;100.00;100926.53;5037420;28;20072;-79
2021/07/12 07:19:56;;;;;;;44.40;40.70;;;;;;;26.36;100.00;100925.00;5033843;28;20508;-79
2021/07/12 07:22:24;;;;;;;43.05;39.53;;;;;;;26.18;100.00;100932.19;5029774;28;20184;-78
2021/07/12 07:24:51;;;;;;;39.92;36.75;;;;;;;26.24;100.00;100939.16;5026086;28;20478;-78
2021/07/12 07:27:20;;;;;;;44.10;40.38;;;;;;;26.39;100.00;100939.94;5039231;28;20045;-77
2021/07/12 07:29:47;;;;;;;44.15;40.45;;;;;;;26.42;100.00;100945.56;5033081;28;20068;-77
2021/07/12 07:32:14;;;;;;;47.65;43.65;;;;;;;26.50;100.00;100938.59;5024079;28;20050;-80
2021/07/12 07:34:41;;;;;;;44.67;40.92;;;;;;;26.53;100.00;100934.44;5024970;28;20375;-79
2021/07/12 07:37:09;;;;;;;42.28;38.63;;;;;;;26.46;100.00;100930.19;5031063;28;20041;-78
2021/07/12 07:39:36;;;;;;;44.53;40.80;;;;;;;26.61;100.00;100936.44;5028517;28;20119;-78
2021/07/12 07:42:04;;;;;;;41.10;37.65;;;;;;;26.70;100.00;100937.31;5029053;28;20054;-77
2021/07/12 07:44:32;;;;;;;40.47;36.88;;;;;;;26.70;100.00;100938.13;5020953;28;20123;-80
2021/07/12 07:46:58;;;;;;;40.28;36.97;;;;;;;26.65;100.00;100938.22;5034949;28;20486;-79
2021/07/12 07:49:25;;;;;;;54.20;49.80;;;;;;;26.91;100.00;100934.91;5035956;28;20045;-79
2021/07/12 07:51:52;;;;;;;44.70;40.97;;;;;;;26.89;100.00;100942.56;5034830;28;20053;-79
2021/07/12 07:54:19;;;;;;;46.90;42.97;;;;;;;26.92;100.00;100928.31;5032828;28;20042;-79
2021/07/12 07:56:46;;;;;;;49.25;45.05;;;;;;;27.06;100.00;100936.44;5019369;28;20053;-80
2021/07/12 07:59:14;;;;;;;46.28;42.28;;;;;;;26.91;100.00;100935.69;5038399;28;20120;-80
2021/07/12 08:01:42;;;;;;;48.80;44.65;;;;;;;27.05;100.00;100929.38;5033695;28;20329;-80
2021/07/12 08:04:11;;;;;;;48.25;44.17;;;;;;;27.11;100.00;100928.13;5024613;28;20053;-80
2021/07/12 08:06:38;;;;;;;42.72;39.30;;;;;;;27.09;100.00;100927.63;5032475;28;20470;-78
2021/07/12 08:09:06;;;;;;;59.15;54.58;;;;;;;27.67;100.00;100932.09;5028119;28;20205;-79
2021/07/12 08:11:34;;;;;;;41.72;38.33;;;;;;;27.86;100.00;100934.59;5028874;28;20092;-78
2021/07/12 08:14:01;;;;;;;42.90;39.28;;;;;;;27.62;100.00;100932.22;5028327;28;20050;-76
2021/07/12 08:16:28;;;;;;;42.60;39.05;;;;;;;27.16;100.00;100930.75;5028897;28;20041;-76
2021/07/12 08:18:56;;;;;;;45.00;40.65;;;;;;;26.95;100.00;100935.88;5024449;28;20209;-77
2021/07/12 08:21:24;;;;;;;52.67;48.17;;;;;;;27.53;100.00;100939.56;5036539;28;20122;-78
2021/07/12 08:23:51;;;;;;;45.63;41.70;;;;;;;27.31;100.00;100926.81;5026480;28;20057;-78
2021/07/12 08:26:38;;;;;;;50.70;46.55;;;;;;;27.36;100.00;100932.94;5027669;28;20045;-77
2021/07/12 08:29:06;;;;;;;48.20;43.95;;;;;;;26.94;100.00;100928.81;5028939;28;20045;-80
2021/07/12 08:31:33;;;;;;;44.55;40.58;;;;;;;26.90;100.00;100934.09;5027788;28;20103;-79
2021/07/12 08:34:01;;;;;;;46.08;41.90;;;;;;;27.25;100.00;100917.97;5025428;28;20056;-77
2021/07/12 08:36:28;;;;;;;45.20;41.65;;;;;;;27.20;100.00;100918.09;5024191;28;20115;-78
2021/07/12 08:38:55;;;;;;;43.28;39.75;;;;;;;27.43;100.00;100928.97;5022481;28;20108;-77
2021/07/12 08:41:22;;;;;;;42.08;38.75;;;;;;;27.38;100.00;100917.09;5029395;28;20061;-78
2021/07/12 08:43:49;;;;;;;45.05;41.53;;;;;;;27.68;100.00;100920.06;5020857;28;20060;-79
2021/07/12 08:46:16;;;;;;;43.20;39.70;;;;;;;27.41;100.00;100915.63;5022513;28;20395;-82
2021/07/12 08:48:43;;;;;;;44.80;40.50;;;;;;;26.92;100.00;100914.69;5023428;28;20046;-78
2021/07/12 08:51:11;;;;;;;45.08;41.63;;;;;;;27.10;100.00;100910.97;5026750;28;20046;-78
2021/07/12 08:53:38;;;;;;;48.25;44.30;;;;;;;27.08;100.00;100907.75;5028313;28;20053;-77
2021/07/12 08:56:05;;;;;;;45.53;42.13;;;;;;;27.71;100.00;100910.44;5021782;28;20112;-78
2021/07/12 08:58:34;;;;;;;41.05;37.65;;;;;;;27.90;100.00;100905.56;5017762;28;20486;-77
2021/07/12 09:01:03;;;;;;;37.15;34.25;;;;;;;27.93;100.00;100915.00;5022744;28;20053;-78
2021/07/12 09:03:32;;;;;;;39.22;35.95;;;;;;;27.83;100.00;100907.94;5022327;28;20512;-78
2021/07/12 09:06:01;;;;;;;39.63;36.30;;;;;;;28.18;100.00;100908.00;5019763;28;20049;-78
2021/07/12 09:08:54;;;;;;;37.78;34.90;;;;;;;28.35;100.00;100908.00;5026753;28;20056;-78
2021/07/12 09:11:26;;;;;;;44.65;41.35;;;;;;;28.39;100.00;100910.91;5019168;28;20053;-77
2021/07/12 09:13:59;;;;;;;36.40;33.33;;;;;;;28.25;100.00;100895.47;5023050;28;20379;-79
2021/07/12 09:16:34;;;;;;;40.78;37.67;;;;;;;27.72;100.00;100910.13;5011363;28;20379;-79
2021/07/12 09:19:13;;;;;;;37.03;34.13;;;;;;;28.56;100.00;100905.44;5017430;28;20050;-79
2021/07/12 09:21:44;;;;;;;34.25;31.38;;;;;;;28.14;100.00;100910.56;5014029;28;20046;-78
2021/07/12 09:24:17;;;;;;;34.97;32.28;;;;;;;29.11;100.00;100906.66;5023044;28;20119;-77
2021/07/12 09:26:46;;;;;;;33.58;30.73;;;;;;;28.94;100.00;100905.56;5019081;28;20410;-79
2021/07/12 09:29:18;;;;;;;32.63;29.83;;;;;;;29.62;100.00;100907.59;5023568;28;20054;-78
2021/07/12 09:31:45;;;;;;;32.88;30.10;;;;;;;29.55;100.00;100908.09;5028382;28;20469;-77
2021/07/12 09:34:12;;;;;;;35.78;32.97;;;;;;;29.32;100.00;100906.75;5019334;28;20049;-78
2021/07/12 09:36:39;;;;;;;33.53;30.65;;;;;;;28.97;100.00;100912.31;5023988;28;20052;-82
2021/07/12 09:39:29;;;;;;;33.60;30.60;;;;;;;29.61;100.00;100915.00;5023969;28;20049;-79
2021/07/12 09:41:57;;;;;;;33.15;30.45;;;;;;;28.61;100.00;100915.41;5022582;28;20049;-78
2021/07/12 09:44:26;;;;;;;32.28;29.52;;;;;;;29.17;100.00;100919.03;5030157;28;20561;-77
2021/07/12 09:46:53;;;;;;;32.88;30.42;;;;;;;29.33;100.00;100913.84;5027876;28;20136;-78
2021/07/12 09:49:22;;;;;;;31.48;29.08;;;;;;;30.10;100.00;100918.09;5024311;28;20050;-79
2021/07/12 09:51:53;;;;;;;32.35;29.75;;;;;;;30.58;100.00;100922.25;5027458;28;20136;-78
2021/07/12 09:54:23;;;;;;;29.70;27.42;;;;;;;30.44;100.00;100924.50;5031910;28;20044;-79
2021/07/12 09:56:52;;;;;;;30.45;27.77;;;;;;;30.63;100.00;100923.19;5027983;28;20473;-78
2021/07/12 09:59:21;;;;;;;30.88;28.60;;;;;;;30.49;100.00;100924.25;5031992;28;20539;-77
2021/07/12 10:01:49;;;;;;;31.67;29.05;;;;;;;30.39;100.00;100921.94;5021868;28;20532;-76
2021/07/12 10:04:16;;;;;;;32.72;30.50;;;;;;;30.58;100.00;100921.44;5022894;28;20045;-77
2021/07/12 10:06:45;;;;;;;30.45;28.05;;;;;;;30.92;100.00;100919.53;5030393;28;20053;-77
2021/07/12 10:09:12;;;;;;;31.38;28.88;;;;;;;30.87;100.00;100914.28;5023738;28;20045;-78
2021/07/12 10:11:40;;;;;;;29.85;27.38;;;;;;;30.57;100.00;100930.81;5022631;28;20042;-77
2021/07/12 10:14:08;;;;;;;27.30;25.10;;;;;;;31.00;100.00;100908.47;5024601;28;20049;-77
2021/07/12 10:16:35;;;;;;;27.30;25.40;;;;;;;30.75;100.00;100925.97;5026885;28;20049;-78
2021/07/12 10:19:02;;;;;;;28.23;26.10;;;;;;;30.83;98.11;100929.78;5036596;28;20053;-78
2021/07/12 10:21:38;;;;;;;26.63;24.48;;;;;;;31.00;96.93;100933.16;5029243;28;20046;-79
2021/07/12 10:24:06;;;;;;;30.85;28.63;;;;;;;31.52;90.26;100918.03;5025070;28;20449;-77
2021/07/12 10:26:50;;;;;;;28.05;25.80;;;;;;;31.21;92.81;100921.31;5027512;28;20050;-77
2021/07/12 10:29:23;;;;;;;28.23;25.98;;;;;;;30.99;100.00;100917.06;5025463;28;20510;-77
2021/07/12 10:32:07;;;;;;;28.58;26.27;;;;;;;31.32;100.00;100918.91;5025913;28;20053;-76
2021/07/12 10:34:36;;;;;;;27.50;25.25;;;;;;;31.54;97.85;100918.50;5021563;28;20520;-77
2021/07/12 10:37:06;;;;;;;29.10;26.83;;;;;;;31.63;99.46;100910.16;5028142;28;20057;-76
2021/07/12 10:40:11;;;;;;;29.48;27.40;;;;;;;31.45;100.00;100904.91;5024590;28;20045;-77
2021/07/12 10:42:55;;;;;;;28.15;25.70;;;;;;;31.36;92.34;100909.69;5023662;28;20041;-77
2021/07/12 10:45:39;;;;;;;28.98;27.08;;;;;;;31.69;98.96;100903.28;5020737;28;20049;-77
2021/07/12 10:48:09;;;;;;;27.33;25.33;;;;;;;31.51;99.02;100893.69;5029544;28;20482;-77
2021/07/12 10:50:52;;;;;;;27.92;25.92;;;;;;;31.49;98.72;100897.56;5028320;28;20049;-77
2021/07/12 10:53:39;;;;;;;29.00;26.88;;;;;;;31.86;95.98;100897.56;5028514;28;20132;-78
2021/07/12 10:56:17;;;;;;;28.63;26.60;;;;;;;31.53;97.13;100894.13;5031311;28;20150;-78
2021/07/12 10:58:52;;;;;;;28.63;26.38;;;;;;;31.27;91.85;100887.03;5028107;28;20133;-77
2021/07/12 11:01:41;;;;;;;28.60;26.60;;;;;;;31.37;91.12;100886.59;5021973;28;20053;-78
2021/07/12 11:04:30;;;;;;;31.05;28.83;;;;;;;31.59;87.59;100888.09;5025797;28;20129;-77
2021/07/12 11:06:57;;;;;;;29.60;27.40;;;;;;;32.15;98.35;100885.50;5025114;28;20501;-77
2021/07/12 11:09:54;;;;;;;28.05;25.95;;;;;;;32.10;87.08;100885.72;5026303;28;20469;-76